createdAt,value
2022-12-25T00:00:54.483Z,1.75
2022-12-25T00:03:21.459Z,1.63
2022-12-25T00:05:48.231Z,1.40
2022-12-25T00:08:14.885Z,0.95
2022-12-25T00:10:45.198Z,1.23
2022-12-25T00:13:12.349Z,1.08
2022-12-25T00:15:41.967Z,0.95
2022-12-25T00:18:08.709Z,2.80
2022-12-25T00:20:36.475Z,1.48
2022-12-25T00:23:03.095Z,1.50
2022-12-25T00:25:29.780Z,2.10
2022-12-25T00:27:56.424Z,1.83
2022-12-25T00:30:23.079Z,3.38
2022-12-25T00:32:49.772Z,3.17
2022-12-25T00:35:16.511Z,4.40
2022-12-25T00:37:43.152Z,4.05
2022-12-25T00:40:10.187Z,4.63
2022-12-25T00:42:36.829Z,4.82
2022-12-25T00:45:05.686Z,3.75
2022-12-25T00:47:32.420Z,3.88
2022-12-25T00:49:59.045Z,3.45
2022-12-25T00:52:25.734Z,6.28
2022-12-25T00:54:52.385Z,4.30
2022-12-25T00:57:19.695Z,4.47
2022-12-25T00:59:46.345Z,4.38
2022-12-25T01:02:25.151Z,4.28
2022-12-25T01:04:54.849Z,3.95
2022-12-25T01:07:24.064Z,6.13
2022-12-25T01:10:09.483Z,6.25
2022-12-25T01:12:39.737Z,4.35
2022-12-25T01:15:08.133Z,3.35
2022-12-25T01:17:35.044Z,3.40
2022-12-25T01:20:01.814Z,3.75
2022-12-25T01:22:28.765Z,3.55
2022-12-25T01:24:55.377Z,6.90
2022-12-25T01:27:22.232Z,4.22
2022-12-25T01:29:48.921Z,2.90
2022-12-25T01:32:15.705Z,3.95
2022-12-25T01:34:42.354Z,4.60
2022-12-25T01:37:09.043Z,4.15
2022-12-25T01:39:35.755Z,6.88
2022-12-25T01:42:02.507Z,4.05
2022-12-25T01:44:35.405Z,3.08
2022-12-25T01:47:06.384Z,3.65
2022-12-25T01:49:39.470Z,5.55
2022-12-25T01:52:23.886Z,6.20
2022-12-25T01:54:58.181Z,2.67
2022-12-25T01:57:31.785Z,4.28
2022-12-25T01:59:59.867Z,3.55
2022-12-25T02:02:28.852Z,3.28
2022-12-25T02:05:18.564Z,2.80
2022-12-25T02:07:48.319Z,3.35
2022-12-25T02:10:15.432Z,3.22
2022-12-25T02:12:45.001Z,3.95
2022-12-25T02:15:15.226Z,6.13
2022-12-25T02:17:47.694Z,4.22
2022-12-25T02:20:42.249Z,2.83
2022-12-25T02:23:58.165Z,2.25
2022-12-25T02:26:39.693Z,2.90
2022-12-25T02:29:23.113Z,2.58
2022-12-25T02:32:02.800Z,3.03
2022-12-25T02:34:48.367Z,2.75
2022-12-25T02:37:28.196Z,2.60
2022-12-25T02:40:02.328Z,2.88
2022-12-25T02:43:05.875Z,2.75
2022-12-25T02:45:57.416Z,2.13
2022-12-25T02:48:45.939Z,2.90
2022-12-25T02:51:34.301Z,2.08
2022-12-25T02:54:24.085Z,2.78
2022-12-25T02:57:11.152Z,2.45
2022-12-25T02:59:59.013Z,2.50
2022-12-25T03:02:47.818Z,2.20
2022-12-25T03:05:38.249Z,2.63
2022-12-25T03:08:09.977Z,2.42
2022-12-25T03:10:59.210Z,3.08
2022-12-25T03:13:32.926Z,2.53
2022-12-25T03:16:18.300Z,3.00
2022-12-25T03:18:45.175Z,2.65
2022-12-25T03:21:30.584Z,3.55
2022-12-25T03:24:20.680Z,3.25
2022-12-25T03:26:56.724Z,2.72
2022-12-25T03:29:59.825Z,2.83
2022-12-25T03:32:48.102Z,2.35
2022-12-25T03:35:32.011Z,2.83
2022-12-25T03:38:27.350Z,4.30
2022-12-25T03:41:24.909Z,3.60
2022-12-25T03:44:22.538Z,2.78
2022-12-25T03:47:27.594Z,3.35
2022-12-25T03:50:39.957Z,4.93
2022-12-25T03:53:59.321Z,2.38
2022-12-25T03:56:46.305Z,2.20
2022-12-25T03:59:31.858Z,4.07
2022-12-25T04:02:17.602Z,2.90
2022-12-25T04:05:02.823Z,2.58
2022-12-25T04:07:48.281Z,2.75
2022-12-25T04:10:33.799Z,5.40
2022-12-25T04:13:19.313Z,2.25
2022-12-25T04:16:04.682Z,3.47
2022-12-25T04:18:50.104Z,4.68
2022-12-25T04:21:35.563Z,3.17
2022-12-25T04:24:20.890Z,3.40
2022-12-25T04:27:06.416Z,2.70
2022-12-25T04:29:51.813Z,3.25
2022-12-25T04:32:37.483Z,5.07
2022-12-25T04:35:22.894Z,2.30
2022-12-25T04:37:49.520Z,4.47
2022-12-25T04:40:16.396Z,3.15
2022-12-25T04:42:43.042Z,3.10
2022-12-25T04:45:10.232Z,2.72
2022-12-25T04:47:38.497Z,2.22
2022-12-25T04:50:06.698Z,2.40
2022-12-25T04:52:37.719Z,2.38
2022-12-25T04:55:06.002Z,2.65
2022-12-25T04:57:33.204Z,5.10
2022-12-25T04:59:59.876Z,2.42
2022-12-25T05:02:26.735Z,4.05
2022-12-25T05:04:53.508Z,2.58
2022-12-25T05:07:20.137Z,2.40
2022-12-25T05:09:46.758Z,2.63
2022-12-25T05:12:14.347Z,2.88
2022-12-25T05:14:41.211Z,7.38
2022-12-25T05:17:08.111Z,3.55
2022-12-25T05:19:35.155Z,2.85
2022-12-25T05:22:01.946Z,2.75
2022-12-25T05:24:28.839Z,2.30
2022-12-25T05:26:55.547Z,3.05
2022-12-25T05:29:22.247Z,3.30
2022-12-25T05:31:48.968Z,4.45
2022-12-25T05:34:15.676Z,3.03
2022-12-25T05:36:42.348Z,2.85
2022-12-25T05:39:08.956Z,4.00
2022-12-25T05:41:35.581Z,3.78
2022-12-25T05:44:02.482Z,4.03
2022-12-25T05:46:29.231Z,4.32
2022-12-25T05:48:55.950Z,3.58
2022-12-25T05:51:22.802Z,4.38
2022-12-25T05:53:49.417Z,3.15
2022-12-25T05:56:16.080Z,3.58
2022-12-25T05:58:43.068Z,3.08
2022-12-25T06:01:22.615Z,4.55
2022-12-25T06:03:49.313Z,4.22
2022-12-25T06:06:15.997Z,4.43
2022-12-25T06:08:42.884Z,3.25
2022-12-25T06:11:10.288Z,2.55
2022-12-25T06:13:37.257Z,3.13
2022-12-25T06:16:09.123Z,2.65
2022-12-25T06:18:41.157Z,3.83
2022-12-25T06:21:12.900Z,5.07
2022-12-25T06:23:39.960Z,5.07
2022-12-25T06:26:09.242Z,4.45
2022-12-25T06:28:36.253Z,3.13
2022-12-25T06:31:10.772Z,4.35
2022-12-25T06:33:38.107Z,4.20
2022-12-25T06:36:23.417Z,3.58
2022-12-25T06:38:50.678Z,2.50
2022-12-25T06:41:19.929Z,3.63
2022-12-25T06:43:51.247Z,3.45
2022-12-25T06:46:18.767Z,2.70
2022-12-25T06:48:49.234Z,3.25
2022-12-25T06:51:25.036Z,6.15
2022-12-25T06:53:53.527Z,3.08
2022-12-25T06:56:28.047Z,5.80
2022-12-25T06:58:57.620Z,2.88
2022-12-25T07:01:26.174Z,4.15
2022-12-25T07:03:59.700Z,3.45
2022-12-25T07:06:26.583Z,2.40
2022-12-25T07:08:53.266Z,3.67
2022-12-25T07:11:20.407Z,3.58
2022-12-25T07:13:47.140Z,3.13
2022-12-25T07:16:14.727Z,3.63
2022-12-25T07:18:42.049Z,3.03
2022-12-25T07:21:15.222Z,2.25
2022-12-25T07:23:43.541Z,2.63
2022-12-25T07:26:11.499Z,2.42
2022-12-25T07:28:38.295Z,2.22
2022-12-25T07:31:11.961Z,2.25
2022-12-25T07:33:39.721Z,2.22
2022-12-25T07:36:07.651Z,2.30
2022-12-25T07:38:39.705Z,2.33
2022-12-25T07:41:13.061Z,2.55
2022-12-25T07:43:40.303Z,1.90
2022-12-25T07:46:07.256Z,1.73
2022-12-25T07:48:34.267Z,2.00
2022-12-25T07:51:06.666Z,1.45
2022-12-25T07:53:35.817Z,1.65
2022-12-25T07:56:08.044Z,2.50
2022-12-25T07:58:35.227Z,2.53
2022-12-25T08:01:05.686Z,3.67
2022-12-25T08:03:34.050Z,1.85
2022-12-25T08:06:11.396Z,2.10
2022-12-25T08:08:40.055Z,2.25
2022-12-25T08:11:08.798Z,5.15
2022-12-25T08:13:35.962Z,2.05
2022-12-25T08:16:05.415Z,3.17
2022-12-25T08:18:32.363Z,4.47
2022-12-25T08:21:20.988Z,3.00
2022-12-25T08:23:48.279Z,2.22
2022-12-25T08:26:20.528Z,3.03
2022-12-25T08:28:47.754Z,2.22
2022-12-25T08:31:21.330Z,2.17
2022-12-25T08:33:50.187Z,2.40
2022-12-25T08:36:18.016Z,2.33
2022-12-25T08:38:44.888Z,1.90
2022-12-25T08:41:12.400Z,2.10
2022-12-25T08:43:39.542Z,2.67
2022-12-25T08:46:07.752Z,2.30
2022-12-25T08:48:35.436Z,2.85
2022-12-25T08:51:03.404Z,1.80
2022-12-25T08:53:30.201Z,2.25
2022-12-25T08:56:01.274Z,1.83
2022-12-25T08:58:28.491Z,1.17
2022-12-25T09:00:55.682Z,4.40
2022-12-25T09:03:23.197Z,2.30
2022-12-25T09:05:51.151Z,1.50
2022-12-25T09:08:18.241Z,2.05
2022-12-25T09:10:44.983Z,1.70
2022-12-25T09:13:12.859Z,1.58
2022-12-25T09:15:40.252Z,1.63
2022-12-25T09:18:07.031Z,2.00
2022-12-25T09:20:33.751Z,1.40
2022-12-25T09:23:00.559Z,4.43
2022-12-25T09:25:27.358Z,1.70
2022-12-25T09:27:56.180Z,1.83
2022-12-25T09:30:23.347Z,1.80
2022-12-25T09:32:50.239Z,2.95
2022-12-25T09:35:18.965Z,1.42
2022-12-25T09:37:46.024Z,1.33
2022-12-25T09:40:18.767Z,2.10
2022-12-25T09:42:46.547Z,2.13
2022-12-25T09:45:33.926Z,2.22
2022-12-25T09:48:00.681Z,2.80
2022-12-25T09:50:46.080Z,1.67
2022-12-25T09:53:35.996Z,1.60
2022-12-25T09:56:27.016Z,1.58
2022-12-25T10:01:44.680Z,2.72
2022-12-25T10:04:44.809Z,3.08
2022-12-25T10:07:25.666Z,2.58
2022-12-25T10:10:40.060Z,1.50
2022-12-25T10:13:31.548Z,1.40
2022-12-25T10:16:01.463Z,1.52
2022-12-25T10:18:28.113Z,2.42
2022-12-25T10:20:57.439Z,1.60
2022-12-25T10:23:40.311Z,2.58
2022-12-25T10:26:20.000Z,1.25
2022-12-25T10:29:08.124Z,1.42
2022-12-25T10:31:37.196Z,1.88
2022-12-25T10:34:06.148Z,2.17
2022-12-25T10:36:34.634Z,2.47
2022-12-25T10:39:01.491Z,2.50
2022-12-25T10:41:50.069Z,1.27
2022-12-25T10:44:24.245Z,2.13
2022-12-25T10:46:56.421Z,1.52
2022-12-25T10:49:31.829Z,2.33
2022-12-25T10:51:58.818Z,6.10
2022-12-25T10:54:36.083Z,1.23
2022-12-25T10:57:18.531Z,1.52
2022-12-25T11:00:06.094Z,1.42
2022-12-25T11:02:40.181Z,5.03
2022-12-25T11:05:14.767Z,1.95
2022-12-25T11:07:51.130Z,1.17
2022-12-25T11:10:33.575Z,0.82
2022-12-25T11:13:01.742Z,1.40
2022-12-25T11:15:43.976Z,1.30
2022-12-25T11:18:28.784Z,0.90
2022-12-25T11:21:01.798Z,0.85
2022-12-25T11:23:31.193Z,1.13
2022-12-25T11:26:04.237Z,1.10
2022-12-25T11:28:33.159Z,13.75
2022-12-25T11:31:22.398Z,1.20
2022-12-25T11:34:26.449Z,0.88
2022-12-25T11:36:53.971Z,1.00
2022-12-25T11:39:35.162Z,0.82
2022-12-25T11:42:26.402Z,0.82
2022-12-25T11:45:03.560Z,1.05
2022-12-25T11:47:48.555Z,1.10
2022-12-25T11:50:25.194Z,0.70
2022-12-25T11:52:53.153Z,1.10
2022-12-25T11:55:40.079Z,3.00
2022-12-25T11:58:15.752Z,0.70
2022-12-25T12:00:44.908Z,1.40
2022-12-25T12:03:33.569Z,3.85
2022-12-25T12:06:07.175Z,1.85
2022-12-25T12:08:36.343Z,3.90
2022-12-25T12:11:26.654Z,1.00
2022-12-25T12:14:12.109Z,1.53
2022-12-25T12:16:38.885Z,1.02
2022-12-25T12:19:34.674Z,0.95
2022-12-25T12:22:04.123Z,0.80
2022-12-25T12:24:39.065Z,1.05
2022-12-25T12:27:13.679Z,1.48
2022-12-25T12:29:44.136Z,1.08
2022-12-25T12:32:34.185Z,1.85
2022-12-25T12:35:13.825Z,1.10
2022-12-25T12:37:42.183Z,1.45
2022-12-25T12:40:57.618Z,1.50
2022-12-25T12:43:36.355Z,0.93
2022-12-25T12:46:28.065Z,1.00
2022-12-25T12:49:33.717Z,0.35
2022-12-25T12:52:42.045Z,0.82
2022-12-25T12:55:13.098Z,1.40
2022-12-25T12:57:41.066Z,0.40
2022-12-25T13:00:19.212Z,1.35
2022-12-25T13:02:54.661Z,0.57
2022-12-25T13:05:46.222Z,0.68
2022-12-25T13:08:21.173Z,1.02
2022-12-25T13:11:02.278Z,0.50
2022-12-25T13:13:36.452Z,0.73
2022-12-25T13:16:04.799Z,0.50
2022-12-25T13:18:34.061Z,1.13
2022-12-25T13:21:05.192Z,0.60
2022-12-25T13:23:34.970Z,0.40
2022-12-25T13:26:19.888Z,0.50
2022-12-25T13:28:47.407Z,0.40
2022-12-25T13:31:25.238Z,0.90
2022-12-25T13:34:00.981Z,1.35
2022-12-25T13:36:32.713Z,0.75
2022-12-25T13:39:00.188Z,1.50
2022-12-25T13:41:52.712Z,0.52
2022-12-25T13:44:26.008Z,0.40
2022-12-25T13:46:52.785Z,0.98
2022-12-25T13:49:31.237Z,0.98
2022-12-25T13:52:11.230Z,0.50
2022-12-25T13:54:38.025Z,1.08
2022-12-25T13:57:11.310Z,0.52
2022-12-25T13:59:39.857Z,0.60
2022-12-25T14:04:45.750Z,0.93
2022-12-25T14:07:12.468Z,0.75
2022-12-25T14:09:40.495Z,0.98
2022-12-25T14:12:09.250Z,1.42
2022-12-25T14:14:38.411Z,0.47
2022-12-25T14:17:05.437Z,0.80
2022-12-25T14:19:34.332Z,0.60
2022-12-25T14:22:22.541Z,0.60
2022-12-25T14:24:49.689Z,0.82
2022-12-25T14:27:26.288Z,2.20
2022-12-25T14:29:56.627Z,0.80
2022-12-25T14:32:27.231Z,1.05
2022-12-25T14:34:57.007Z,0.40
2022-12-25T14:37:27.885Z,0.70
2022-12-25T14:42:31.321Z,0.88
2022-12-25T14:45:07.778Z,0.63
2022-12-25T14:47:51.067Z,1.63
2022-12-25T14:50:41.524Z,1.05
2022-12-25T14:53:20.878Z,0.60
2022-12-25T14:55:50.667Z,0.88
2022-12-25T14:58:27.393Z,0.98
2022-12-25T15:01:00.256Z,1.02
2022-12-25T15:03:37.697Z,1.27
2022-12-25T15:06:11.185Z,1.25
2022-12-25T15:08:37.882Z,0.90
2022-12-25T15:11:04.928Z,2.10
2022-12-25T15:13:31.982Z,1.90
2022-12-25T15:16:13.208Z,1.08
2022-12-25T15:18:43.335Z,1.55
2022-12-25T15:21:21.824Z,1.23
2022-12-25T15:23:48.451Z,0.77
2022-12-25T15:26:15.474Z,2.42
2022-12-25T15:28:42.547Z,1.38
2022-12-25T15:31:24.999Z,0.85
2022-12-25T15:33:53.253Z,0.90
2022-12-25T15:36:20.215Z,1.65
2022-12-25T15:38:46.908Z,0.75
2022-12-25T15:41:36.099Z,0.82
2022-12-25T15:44:04.553Z,1.17
2022-12-25T15:46:31.660Z,1.23
2022-12-25T15:48:58.436Z,1.35
2022-12-25T15:51:25.177Z,1.17
2022-12-25T15:53:51.871Z,2.08
2022-12-25T15:56:19.110Z,2.33
2022-12-25T15:58:45.777Z,2.80
2022-12-25T16:01:17.595Z,1.30
2022-12-25T16:03:45.485Z,1.83
2022-12-25T16:06:14.131Z,1.33
2022-12-25T16:08:41.572Z,2.05
2022-12-25T16:11:08.854Z,1.88
2022-12-25T16:13:35.488Z,1.83
2022-12-25T16:16:02.880Z,1.98
2022-12-25T16:18:30.550Z,3.45
2022-12-25T16:20:58.777Z,6.32
2022-12-25T16:23:25.432Z,6.25
2022-12-25T16:25:52.165Z,14.05
2022-12-25T16:28:18.781Z,7.32
2022-12-25T16:30:45.884Z,7.28
2022-12-25T16:33:12.635Z,5.80
2022-12-25T16:35:39.387Z,6.55
2022-12-25T16:38:06.963Z,6.53
2022-12-25T16:40:34.010Z,6.80
2022-12-25T16:43:00.732Z,6.93
2022-12-25T16:45:27.487Z,5.90
2022-12-25T16:47:55.639Z,7.25
2022-12-25T16:50:22.706Z,8.10
2022-12-25T16:52:49.413Z,10.98
2022-12-25T16:55:16.077Z,7.95
2022-12-25T16:57:42.709Z,19.27
2022-12-25T17:00:10.114Z,7.20
2022-12-25T17:02:36.922Z,8.95
2022-12-25T17:05:03.875Z,10.10
2022-12-25T17:07:30.535Z,11.98
2022-12-25T17:09:57.240Z,17.00
2022-12-25T17:12:23.895Z,16.60
2022-12-25T17:14:50.772Z,16.33
2022-12-25T17:17:17.417Z,12.15
2022-12-25T17:19:44.115Z,13.73
2022-12-25T17:22:10.957Z,19.30
2022-12-25T17:24:40.299Z,18.85
2022-12-25T17:27:09.162Z,20.48
2022-12-25T17:29:36.869Z,21.08
2022-12-25T17:32:03.564Z,21.45
2022-12-25T17:34:30.206Z,14.52
2022-12-25T17:36:56.902Z,12.13
2022-12-25T17:39:23.560Z,13.48
2022-12-25T17:41:50.944Z,8.45
2022-12-25T17:44:18.824Z,6.78
2022-12-25T17:46:45.501Z,8.32
2022-12-25T17:49:17.587Z,8.02
2022-12-25T17:51:45.201Z,10.02
2022-12-25T17:54:12.374Z,8.02
2022-12-25T17:56:39.243Z,9.27
2022-12-25T17:59:08.340Z,10.20
2022-12-25T18:01:37.680Z,5.95
2022-12-25T18:04:06.155Z,6.75
2022-12-25T18:06:35.413Z,13.57
2022-12-25T18:09:02.275Z,10.65
2022-12-25T18:11:33.055Z,13.70
2022-12-25T18:16:34.087Z,13.00
2022-12-25T18:19:01.083Z,21.73
2022-12-25T18:21:28.641Z,10.40
2022-12-25T18:23:55.311Z,9.63
2022-12-25T18:26:22.842Z,9.93
2022-12-25T18:28:50.445Z,79.40
2022-12-25T18:31:20.923Z,92.97
2022-12-25T18:33:47.775Z,87.85
2022-12-25T18:36:16.781Z,42.53
2022-12-25T18:38:43.908Z,25.48
2022-12-25T18:41:11.635Z,11.60
2022-12-25T18:43:54.149Z,15.20
2022-12-25T18:46:24.229Z,16.05
2022-12-25T18:48:51.756Z,37.20
2022-12-25T18:51:19.021Z,12.13
2022-12-25T18:53:45.948Z,13.27
2022-12-25T18:56:18.329Z,12.18
2022-12-25T18:58:46.480Z,8.23
2022-12-25T19:01:19.359Z,7.15
2022-12-25T19:03:48.009Z,7.72
2022-12-25T19:06:26.043Z,8.10
2022-12-25T19:08:53.506Z,6.80
2022-12-25T19:11:20.959Z,5.90
2022-12-25T19:13:48.022Z,10.18
2022-12-25T19:16:15.234Z,6.43
2022-12-25T19:18:45.649Z,7.72
2022-12-25T19:21:12.321Z,6.45
2022-12-25T19:23:39.327Z,8.23
2022-12-25T19:26:08.039Z,7.72
2022-12-25T19:28:35.185Z,8.13
2022-12-25T19:31:02.642Z,5.07
2022-12-25T19:33:31.528Z,5.38
2022-12-25T19:36:02.193Z,4.57
2022-12-25T19:38:29.086Z,4.82
2022-12-25T19:41:01.791Z,6.22
2022-12-25T19:43:34.225Z,9.88
2022-12-25T19:46:01.944Z,9.23
2022-12-25T19:48:30.077Z,7.65
2022-12-25T19:50:56.957Z,4.97
2022-12-25T19:53:24.314Z,3.78
2022-12-25T19:55:52.647Z,4.80
2022-12-25T19:58:20.636Z,5.88
2022-12-25T20:01:10.645Z,5.40
2022-12-25T20:03:45.518Z,6.35
2022-12-25T20:06:18.771Z,6.25
2022-12-25T20:08:50.416Z,4.43
2022-12-25T20:11:17.976Z,5.82
2022-12-25T20:13:45.204Z,3.88
2022-12-25T20:16:11.985Z,6.93
2022-12-25T20:18:39.411Z,7.63
2022-12-25T20:21:10.802Z,6.07
2022-12-25T20:23:37.568Z,5.93
2022-12-25T20:26:05.387Z,6.13
2022-12-25T20:28:34.202Z,3.53
2022-12-25T20:31:06.447Z,4.38
2022-12-25T20:33:34.270Z,3.70
2022-12-25T20:36:01.986Z,4.18
2022-12-25T20:38:29.148Z,4.30
2022-12-25T20:43:52.304Z,4.65
2022-12-25T20:46:19.397Z,8.10
2022-12-25T20:48:46.161Z,17.52
2022-12-25T20:51:15.752Z,12.15
2022-12-25T20:53:42.969Z,6.20
2022-12-25T20:56:14.302Z,7.30
2022-12-25T20:58:41.361Z,3.33
2022-12-25T21:01:11.445Z,4.45
2022-12-25T21:03:38.946Z,8.20
2022-12-25T21:06:06.408Z,5.95
2022-12-25T21:08:33.032Z,4.00
2022-12-25T21:11:01.045Z,3.78
2022-12-25T21:13:33.670Z,3.15
2022-12-25T21:16:00.655Z,3.80
2022-12-25T21:18:28.346Z,4.20
2022-12-25T21:20:57.196Z,3.50
2022-12-25T21:23:26.611Z,4.22
2022-12-25T21:25:54.602Z,4.68
2022-12-25T21:28:22.513Z,3.45
2022-12-25T21:30:49.215Z,3.78
2022-12-25T21:33:34.791Z,4.25
2022-12-25T21:36:08.430Z,3.53
2022-12-25T21:38:35.321Z,5.95
2022-12-25T21:41:07.176Z,8.98
2022-12-25T21:43:35.220Z,6.78
2022-12-25T21:46:11.463Z,4.85
2022-12-25T21:48:38.675Z,4.15
2022-12-25T21:51:26.889Z,3.85
2022-12-25T21:53:53.597Z,4.10
2022-12-25T21:56:20.313Z,3.38
2022-12-25T21:58:47.278Z,6.65
2022-12-25T22:01:16.804Z,3.85
2022-12-25T22:03:44.312Z,4.95
2022-12-25T22:06:30.285Z,5.18
2022-12-25T22:08:57.140Z,5.65
2022-12-25T22:11:43.807Z,6.85
2022-12-25T22:14:51.297Z,5.10
2022-12-25T22:17:58.750Z,3.63
2022-12-25T22:20:36.446Z,3.83
2022-12-25T22:23:03.953Z,3.55
2022-12-25T22:25:30.650Z,4.55
2022-12-25T22:27:57.928Z,3.28
2022-12-25T22:30:27.840Z,2.67
2022-12-25T22:32:55.045Z,3.08
2022-12-25T22:35:22.166Z,3.22
2022-12-25T22:37:49.552Z,4.22
2022-12-25T22:40:17.938Z,3.67
2022-12-25T22:42:44.692Z,2.97
2022-12-25T22:45:12.499Z,2.50
2022-12-25T22:47:39.751Z,4.13
2022-12-25T22:50:06.864Z,5.13
2022-12-25T22:52:33.595Z,11.43
2022-12-25T22:55:00.537Z,18.10
2022-12-25T22:57:27.195Z,7.80
2022-12-25T22:59:54.099Z,3.28
2022-12-25T23:02:21.283Z,3.33
2022-12-25T23:04:48.170Z,11.68
2022-12-25T23:07:15.590Z,4.30
2022-12-25T23:09:43.064Z,4.50
2022-12-25T23:12:29.841Z,5.20
2022-12-25T23:14:57.371Z,10.80
2022-12-25T23:17:43.074Z,9.07
2022-12-25T23:20:30.959Z,10.40
2022-12-25T23:23:16.396Z,11.73
2022-12-25T23:26:01.932Z,12.20
2022-12-25T23:28:47.361Z,5.57
2022-12-25T23:31:14.173Z,2.95
2022-12-25T23:33:40.814Z,5.68
2022-12-25T23:36:07.725Z,2.38
2022-12-25T23:38:34.380Z,2.22
2022-12-25T23:41:01.127Z,2.90
2022-12-25T23:43:27.864Z,2.80
2022-12-25T23:45:54.531Z,3.15
2022-12-25T23:48:21.201Z,2.78
2022-12-25T23:50:48.273Z,2.83
2022-12-25T23:53:14.899Z,4.15
2022-12-25T23:55:42.605Z,2.13
2022-12-25T23:58:09.290Z,2.17
